createdAt,value
2022-11-05T00:03:16.639Z,63.55
2022-11-05T00:06:38.390Z,62.40
2022-11-05T00:09:44.430Z,62.89
2022-11-05T00:13:06.161Z,63.50
2022-11-05T00:16:28.769Z,63.74
2022-11-05T00:19:33.119Z,63.08
2022-11-05T00:23:09.069Z,63.28
2022-11-05T00:26:15.694Z,63.25
2022-11-05T00:29:19.750Z,63.66
2022-11-05T00:32:23.977Z,63.80
2022-11-05T00:35:28.311Z,63.67
2022-11-05T00:38:32.931Z,64.08
2022-11-05T00:41:38.800Z,62.65
2022-11-05T00:45:01.360Z,62.74
2022-11-05T00:48:23.242Z,62.46
2022-11-05T00:51:27.096Z,63.03
2022-11-05T00:54:30.807Z,62.66
2022-11-05T00:57:35.875Z,62.45
2022-11-05T01:00:41.505Z,61.99
2022-11-05T01:03:50.375Z,61.93
2022-11-05T01:06:56.458Z,62.26
2022-11-05T01:10:00.102Z,62.10
2022-11-05T01:13:08.837Z,63.33
2022-11-05T01:16:16.345Z,62.76
2022-11-05T01:19:20.139Z,62.27
2022-11-05T01:22:23.789Z,62.71
2022-11-05T01:25:27.549Z,62.47
2022-11-05T01:28:32.775Z,62.89
2022-11-05T01:31:36.586Z,63.20
2022-11-05T01:34:40.178Z,64.46
2022-11-05T01:37:43.959Z,64.38
2022-11-05T01:40:48.190Z,63.66
2022-11-05T01:43:55.848Z,64.00
2022-11-05T01:46:59.540Z,63.16
2022-11-05T01:50:08.611Z,62.50
2022-11-05T01:53:22.566Z,62.83
2022-11-05T01:56:31.600Z,62.58
2022-11-05T01:59:40.402Z,62.95
2022-11-05T02:02:45.247Z,63.45
2022-11-05T02:05:51.894Z,64.38
2022-11-05T02:09:02.163Z,63.66
2022-11-05T02:12:07.319Z,63.36
2022-11-05T02:15:14.086Z,63.23
2022-11-05T02:18:24.226Z,63.70
2022-11-05T02:22:03.652Z,63.52
2022-11-05T02:25:33.825Z,64.12
2022-11-05T02:29:00.715Z,63.32
2022-11-05T02:32:12.767Z,62.84
2022-11-05T02:35:24.360Z,63.05
2022-11-05T02:38:37.596Z,62.82
2022-11-05T02:41:49.560Z,63.18
2022-11-05T02:45:01.700Z,63.33
2022-11-05T02:48:14.936Z,64.18
2022-11-05T02:51:25.713Z,63.65
2022-11-05T02:54:36.319Z,63.97
2022-11-05T02:57:46.319Z,64.13
2022-11-05T03:00:52.186Z,64.95
2022-11-05T03:04:00.863Z,64.72
2022-11-05T03:07:32.372Z,64.50
2022-11-05T03:10:47.523Z,64.16
2022-11-05T03:13:59.420Z,66.73
2022-11-05T03:17:12.081Z,65.50
2022-11-05T03:20:22.597Z,65.19
2022-11-05T03:23:31.670Z,64.74
2022-11-05T03:26:42.031Z,64.43
2022-11-05T03:29:51.119Z,64.08
2022-11-05T03:32:59.492Z,64.37
2022-11-05T03:36:11.265Z,64.32
2022-11-05T03:39:21.630Z,64.63
2022-11-05T03:42:28.047Z,64.37
2022-11-05T03:45:37.836Z,64.84
2022-11-05T03:48:48.798Z,63.63
2022-11-05T03:52:00.451Z,63.81
2022-11-05T03:55:04.320Z,63.20
2022-11-05T03:58:08.689Z,63.82
2022-11-05T04:01:13.351Z,63.64
2022-11-05T04:04:17.298Z,64.10
2022-11-05T04:07:39.302Z,65.50
2022-11-05T04:11:00.179Z,65.78
2022-11-05T04:14:03.806Z,65.18
2022-11-05T04:17:08.836Z,66.47
2022-11-05T04:20:29.846Z,66.65
2022-11-05T04:23:52.519Z,66.52
2022-11-05T04:26:58.455Z,66.62
2022-11-05T04:30:20.149Z,65.96
2022-11-05T04:33:24.007Z,65.38
2022-11-05T04:36:27.770Z,65.79
2022-11-05T04:39:33.349Z,66.46
2022-11-05T04:42:37.169Z,66.17
2022-11-05T04:45:40.979Z,66.11
2022-11-05T04:48:44.746Z,66.19
2022-11-05T04:51:48.620Z,66.40
2022-11-05T04:54:53.904Z,65.25
2022-11-05T04:57:57.586Z,64.72
2022-11-05T05:01:04.722Z,65.25
2022-11-05T05:04:08.496Z,65.42
2022-11-05T05:07:12.269Z,65.33
2022-11-05T05:10:17.736Z,64.98
2022-11-05T05:13:21.569Z,66.38
2022-11-05T05:16:26.660Z,65.49
2022-11-05T05:19:30.559Z,66.23
2022-11-05T05:22:33.289Z,66.49
2022-11-05T05:25:39.835Z,65.89
2022-11-05T05:28:46.367Z,65.87
2022-11-05T05:31:50.208Z,65.23
2022-11-05T05:34:54.380Z,65.06
2022-11-05T05:37:58.186Z,64.84
2022-11-05T05:41:03.424Z,64.66
2022-11-05T05:44:07.748Z,64.37
2022-11-05T05:47:11.426Z,67.63
2022-11-05T05:50:15.491Z,64.53
2022-11-05T05:53:19.400Z,63.91
2022-11-05T05:56:24.669Z,63.60
2022-11-05T05:59:28.429Z,63.00
2022-11-05T06:02:32.284Z,62.90
2022-11-05T06:05:36.090Z,62.99
2022-11-05T06:08:40.031Z,62.33
2022-11-05T06:11:45.227Z,61.82
2022-11-05T06:14:48.940Z,60.80
2022-11-05T06:17:52.689Z,61.21
2022-11-05T06:20:57.299Z,61.41
2022-11-05T06:24:02.000Z,61.80
2022-11-05T06:27:07.148Z,61.72
2022-11-05T06:30:12.180Z,62.36
2022-11-05T06:33:15.816Z,60.02
2022-11-05T06:36:20.918Z,61.23
2022-11-05T06:39:24.734Z,60.88
2022-11-05T06:42:29.998Z,59.65
2022-11-05T06:45:33.904Z,60.07
2022-11-05T06:48:37.654Z,58.37
2022-11-05T06:51:41.484Z,57.62
2022-11-05T06:54:45.957Z,57.86
2022-11-05T06:57:52.099Z,55.95
2022-11-05T07:00:55.879Z,55.87
2022-11-05T07:04:00.074Z,55.04
2022-11-05T07:07:03.797Z,53.57
2022-11-05T07:10:09.535Z,54.49
2022-11-05T07:13:14.972Z,53.18
2022-11-05T07:16:19.326Z,53.84
2022-11-05T07:19:23.665Z,52.42
2022-11-05T07:22:27.358Z,51.78
2022-11-05T07:25:32.988Z,51.14
2022-11-05T07:28:38.189Z,51.70
2022-11-05T07:31:42.194Z,50.32
2022-11-05T07:34:46.012Z,51.37
2022-11-05T07:37:51.279Z,49.79
2022-11-05T07:40:55.348Z,50.84
2022-11-05T07:44:00.955Z,50.84
2022-11-05T07:47:07.789Z,49.91
2022-11-05T07:50:11.865Z,49.12
2022-11-05T07:53:16.406Z,50.17
2022-11-05T07:56:20.258Z,49.89
2022-11-05T07:59:25.705Z,49.82
2022-11-05T08:02:29.568Z,48.87
2022-11-05T08:05:36.837Z,49.90
2022-11-05T08:08:40.815Z,48.78
2022-11-05T08:11:45.926Z,49.04
2022-11-05T08:14:52.005Z,48.29
2022-11-05T08:18:00.005Z,46.89
2022-11-05T08:21:06.632Z,45.77
2022-11-05T08:24:11.099Z,46.38
2022-11-05T08:27:14.969Z,46.68
2022-11-05T08:30:20.365Z,46.48
2022-11-05T08:33:25.386Z,46.37
2022-11-05T08:36:29.188Z,45.26
2022-11-05T08:39:32.849Z,46.30
2022-11-05T08:42:36.665Z,45.99
2022-11-05T08:45:42.744Z,46.03
2022-11-05T08:48:46.549Z,45.42
2022-11-05T08:51:50.236Z,45.00
2022-11-05T08:54:54.022Z,46.33
2022-11-05T08:57:58.546Z,48.10
2022-11-05T09:01:06.200Z,47.66
2022-11-05T09:04:10.165Z,47.26
2022-11-05T09:07:13.849Z,46.09
2022-11-05T09:10:17.666Z,46.13
2022-11-05T09:13:22.014Z,45.58
2022-11-05T09:16:28.125Z,45.08
2022-11-05T09:19:33.750Z,45.73
2022-11-05T09:22:43.308Z,45.10
2022-11-05T09:25:48.278Z,45.35
2022-11-05T09:28:52.079Z,44.76
2022-11-05T09:31:57.168Z,44.32
2022-11-05T09:35:01.507Z,43.89
2022-11-05T09:38:05.248Z,43.68
2022-11-05T09:41:14.628Z,43.06
2022-11-05T09:44:23.011Z,42.80
2022-11-05T09:47:32.664Z,43.23
2022-11-05T09:50:40.985Z,43.28
2022-11-05T09:53:46.985Z,43.84
2022-11-05T09:56:50.963Z,42.97
2022-11-05T09:59:57.097Z,43.05
2022-11-05T10:03:08.451Z,46.36
2022-11-05T10:06:19.878Z,45.11
2022-11-05T10:09:28.168Z,44.77
2022-11-05T10:12:37.504Z,44.23
2022-11-05T10:15:44.391Z,43.92
2022-11-05T10:18:55.379Z,44.28
2022-11-05T10:22:10.674Z,44.60
2022-11-05T10:25:19.847Z,44.17
2022-11-05T10:28:25.362Z,44.40
2022-11-05T10:31:35.415Z,44.27
2022-11-05T10:34:41.405Z,45.49
2022-11-05T10:37:45.084Z,43.88
2022-11-05T10:40:59.369Z,43.18
2022-11-05T10:44:17.626Z,43.77
2022-11-05T10:47:45.991Z,44.85
2022-11-05T10:50:51.229Z,43.94
2022-11-05T10:54:01.982Z,45.10
2022-11-05T10:57:29.478Z,45.72
2022-11-05T11:00:33.258Z,45.75
2022-11-05T11:03:42.729Z,45.57
2022-11-05T11:06:51.869Z,44.86
2022-11-05T11:09:55.879Z,45.07
2022-11-05T11:12:59.905Z,45.46
2022-11-05T11:16:17.269Z,45.02
2022-11-05T11:19:29.549Z,45.70
2022-11-05T11:22:35.066Z,46.49
2022-11-05T11:25:47.459Z,46.34
2022-11-05T11:28:58.619Z,44.86
2022-11-05T11:32:02.413Z,45.21
2022-11-05T11:35:09.540Z,45.99
2022-11-05T11:38:16.424Z,45.13
2022-11-05T11:41:27.578Z,44.90
2022-11-05T11:44:34.155Z,44.76
2022-11-05T11:47:45.768Z,45.25
2022-11-05T11:50:50.587Z,45.60
2022-11-05T11:53:58.304Z,45.25
2022-11-05T11:57:02.186Z,45.19
2022-11-05T12:00:09.414Z,45.04
2022-11-05T12:03:25.783Z,46.28
2022-11-05T12:06:37.559Z,46.16
2022-11-05T12:10:00.059Z,45.36
2022-11-05T12:13:34.658Z,45.56
2022-11-05T12:16:49.855Z,46.12
2022-11-05T12:20:25.927Z,45.83
2022-11-05T12:23:56.926Z,47.06
2022-11-05T12:27:17.175Z,47.56
2022-11-05T12:30:22.819Z,47.79
2022-11-05T12:33:44.087Z,47.68
2022-11-05T12:37:09.314Z,47.78
2022-11-05T12:40:37.008Z,47.29
2022-11-05T12:43:54.545Z,47.30
2022-11-05T12:47:14.318Z,47.00
2022-11-05T12:50:26.260Z,47.48
2022-11-05T12:53:42.673Z,47.50
2022-11-05T12:56:50.731Z,47.44
2022-11-05T13:00:00.007Z,47.56
2022-11-05T13:03:18.686Z,47.27
2022-11-05T13:06:26.366Z,47.55
2022-11-05T13:09:35.786Z,47.22
2022-11-05T13:12:41.731Z,47.39
2022-11-05T13:15:53.165Z,48.38
2022-11-05T13:19:00.433Z,48.39
2022-11-05T13:22:17.920Z,49.35
2022-11-05T13:25:25.578Z,48.70
2022-11-05T13:28:36.846Z,48.89
2022-11-05T13:31:46.958Z,49.46
2022-11-05T13:34:50.686Z,49.83
2022-11-05T13:38:16.647Z,50.24
2022-11-05T13:41:33.219Z,50.56
2022-11-05T13:45:04.968Z,50.64
2022-11-05T13:48:31.332Z,50.29
2022-11-05T13:51:53.095Z,50.13
2022-11-05T13:55:19.738Z,50.10
2022-11-05T13:58:58.501Z,49.78
2022-11-05T14:02:05.355Z,50.83
2022-11-05T14:05:24.525Z,50.60
2022-11-05T14:08:31.308Z,50.82
2022-11-05T14:11:38.025Z,51.18
2022-11-05T14:14:47.285Z,51.50
2022-11-05T14:18:00.490Z,52.07
2022-11-05T14:21:08.100Z,52.77
2022-11-05T14:24:27.839Z,52.53
2022-11-05T14:27:44.069Z,52.69
2022-11-05T14:30:49.188Z,52.45
2022-11-05T14:34:01.459Z,52.75
2022-11-05T14:37:33.745Z,52.68
2022-11-05T14:40:39.900Z,52.86
2022-11-05T14:43:49.431Z,53.75
2022-11-05T14:46:57.625Z,53.49
2022-11-05T14:50:09.190Z,54.06
2022-11-05T14:53:34.966Z,53.71
2022-11-05T14:56:50.544Z,53.60
2022-11-05T15:00:01.084Z,53.99
2022-11-05T15:03:26.488Z,54.05
2022-11-05T15:06:34.568Z,54.40
2022-11-05T15:09:41.885Z,54.46
2022-11-05T15:12:49.061Z,54.22
2022-11-05T15:15:53.898Z,54.88
2022-11-05T15:18:59.116Z,55.15
2022-11-05T15:22:07.190Z,54.94
2022-11-05T15:25:19.299Z,54.92
2022-11-05T15:28:32.076Z,56.96
2022-11-05T15:31:38.288Z,56.48
2022-11-05T15:34:53.225Z,56.07
2022-11-05T15:38:02.580Z,55.68
2022-11-05T15:41:14.418Z,55.88
2022-11-05T15:44:33.249Z,56.62
2022-11-05T15:47:36.945Z,56.39
2022-11-05T15:50:40.839Z,56.25
2022-11-05T15:57:29.369Z,56.87
2022-11-05T16:00:35.714Z,57.52
2022-11-05T16:03:41.188Z,57.12
2022-11-05T16:06:48.464Z,57.35
2022-11-05T16:09:57.027Z,57.52
2022-11-05T16:13:30.495Z,57.68
2022-11-05T16:16:35.739Z,58.07
2022-11-05T16:19:43.247Z,58.42
2022-11-05T16:22:47.628Z,58.59
2022-11-05T16:25:53.228Z,59.35
2022-11-05T16:28:57.845Z,59.30
2022-11-05T16:32:04.568Z,59.10
2022-11-05T16:35:22.048Z,59.87
2022-11-05T16:38:26.325Z,59.52
2022-11-05T16:41:31.504Z,59.08
2022-11-05T16:44:35.105Z,59.49
2022-11-05T16:47:39.008Z,60.01
2022-11-05T16:50:44.029Z,59.08
2022-11-05T16:53:50.215Z,59.00
2022-11-05T16:56:57.578Z,59.01
2022-11-05T17:00:02.339Z,58.10
2022-11-05T17:03:06.019Z,58.21
2022-11-05T17:06:10.088Z,58.54
2022-11-05T17:09:14.094Z,58.63
2022-11-05T17:12:19.524Z,58.38
2022-11-05T17:15:26.510Z,58.80
2022-11-05T17:18:30.698Z,58.61
2022-11-05T17:21:34.465Z,59.61
2022-11-05T17:24:39.125Z,58.89
2022-11-05T17:27:47.827Z,58.11
2022-11-05T17:30:52.735Z,57.66
2022-11-05T17:33:57.919Z,57.59
2022-11-05T17:37:01.659Z,57.11
2022-11-05T17:40:19.916Z,57.46
2022-11-05T17:43:25.084Z,58.32
2022-11-05T17:46:29.316Z,57.76
2022-11-05T17:49:33.019Z,57.90
2022-11-05T17:52:37.125Z,58.66
2022-11-05T17:55:42.847Z,58.92
2022-11-05T17:58:48.559Z,58.61
2022-11-05T18:01:52.346Z,58.17
2022-11-05T18:04:56.299Z,58.82
2022-11-05T18:08:00.129Z,59.54
2022-11-05T18:11:04.340Z,59.07
2022-11-05T18:14:09.932Z,58.54
2022-11-05T18:17:13.799Z,58.17
2022-11-05T18:20:19.787Z,58.93
2022-11-05T18:23:23.544Z,58.75
2022-11-05T18:26:27.239Z,58.96
2022-11-05T18:29:32.495Z,59.10
2022-11-05T18:32:36.629Z,60.60
2022-11-05T18:35:43.786Z,59.10
2022-11-05T18:38:47.645Z,59.88
2022-11-05T18:41:51.468Z,58.83
2022-11-05T18:44:56.705Z,58.71
2022-11-05T18:48:01.915Z,59.28
2022-11-05T18:51:09.479Z,59.50
2022-11-05T18:54:13.689Z,58.83
2022-11-05T18:57:17.578Z,58.83
2022-11-05T19:00:22.859Z,59.11
2022-11-05T19:03:26.605Z,58.70
2022-11-05T19:06:30.304Z,59.52
2022-11-05T19:09:34.112Z,59.57
2022-11-05T19:12:37.889Z,59.58
2022-11-05T19:15:45.251Z,59.25
2022-11-05T19:18:50.279Z,59.83
2022-11-05T19:21:54.226Z,60.33
2022-11-05T19:24:57.857Z,60.13
2022-11-05T19:28:03.122Z,60.77
2022-11-05T19:31:08.802Z,60.86
2022-11-05T19:34:14.840Z,60.79
2022-11-05T19:37:19.496Z,60.48
2022-11-05T19:40:24.300Z,60.04
2022-11-05T19:43:27.986Z,60.77
2022-11-05T19:46:33.798Z,60.17
2022-11-05T19:49:37.678Z,60.45
2022-11-05T19:52:41.750Z,60.13
2022-11-05T19:55:46.428Z,60.09
2022-11-05T19:58:51.001Z,60.98
2022-11-05T20:01:56.257Z,60.16
2022-11-05T20:05:00.230Z,60.07
2022-11-05T20:08:03.976Z,60.96
2022-11-05T20:11:08.379Z,60.38
2022-11-05T20:14:12.348Z,60.49
2022-11-05T20:17:17.592Z,60.91
2022-11-05T20:20:22.308Z,60.46
2022-11-05T20:23:28.979Z,61.31
2022-11-05T20:26:32.945Z,60.81
2022-11-05T20:29:36.671Z,61.78
2022-11-05T20:32:42.096Z,61.53
2022-11-05T20:35:45.904Z,62.70
2022-11-05T20:38:50.468Z,62.32
2022-11-05T20:41:54.410Z,62.17
2022-11-05T20:45:00.866Z,61.15
2022-11-05T20:48:06.679Z,61.67
2022-11-05T20:51:12.329Z,61.34
2022-11-05T20:54:18.265Z,60.64
2022-11-05T20:57:22.539Z,61.04
2022-11-05T21:00:26.215Z,61.60
2022-11-05T21:03:31.460Z,60.98
2022-11-05T21:06:36.135Z,61.47
2022-11-05T21:09:39.716Z,61.76
2022-11-05T21:12:45.027Z,61.30
2022-11-05T21:15:50.847Z,61.83
2022-11-05T21:18:55.905Z,61.89
2022-11-05T21:21:59.737Z,61.76
2022-11-05T21:25:03.466Z,63.61
2022-11-05T21:28:07.366Z,62.44
2022-11-05T21:31:11.910Z,62.07
2022-11-05T21:34:17.920Z,61.85
2022-11-05T21:37:21.675Z,61.88
2022-11-05T21:40:25.614Z,61.81
2022-11-05T21:43:29.441Z,61.32
2022-11-05T21:46:33.265Z,61.92
2022-11-05T21:49:39.350Z,61.79
2022-11-05T21:53:00.605Z,61.72
2022-11-05T21:56:25.279Z,61.94
2022-11-05T21:59:46.288Z,61.89
2022-11-05T22:02:50.203Z,62.85
2022-11-05T22:05:57.589Z,62.56
2022-11-05T22:09:01.849Z,63.45
2022-11-05T22:12:06.561Z,62.52
2022-11-05T22:15:11.538Z,63.04
2022-11-05T22:18:15.489Z,63.13
2022-11-05T22:21:20.835Z,61.75
2022-11-05T22:24:25.314Z,65.04
2022-11-05T22:27:29.225Z,63.59
2022-11-05T22:30:34.817Z,65.14
2022-11-05T22:33:38.444Z,65.35
2022-11-05T22:36:43.735Z,63.86
2022-11-05T22:39:47.469Z,63.20
2022-11-05T22:42:51.186Z,63.25
2022-11-05T22:45:55.028Z,62.45
2022-11-05T22:48:58.826Z,63.53
2022-11-05T22:52:04.050Z,62.86
2022-11-05T22:55:08.245Z,61.99
2022-11-05T22:58:12.434Z,62.47
2022-11-05T23:01:17.886Z,63.32
2022-11-05T23:04:21.645Z,62.16
2022-11-05T23:07:49.525Z,62.82
2022-11-05T23:11:22.948Z,62.68
2022-11-05T23:14:26.685Z,64.14
2022-11-05T23:17:48.250Z,64.78
2022-11-05T23:21:09.537Z,64.10
2022-11-05T23:24:15.257Z,67.24
2022-11-05T23:27:19.025Z,66.64
2022-11-05T23:30:24.927Z,66.85
2022-11-05T23:33:27.983Z,66.64
2022-11-05T23:36:57.566Z,64.73
2022-11-05T23:40:02.765Z,64.34
2022-11-05T23:43:23.930Z,64.70
2022-11-05T23:46:44.750Z,65.12
2022-11-05T23:49:48.538Z,64.70
2022-11-05T23:52:53.818Z,63.95
2022-11-05T23:56:03.138Z,63.64
2022-11-05T23:59:07.348Z,63.21
